Time;durP1;ratioP1;P1;durP2;ratioP2;P2;SDS_P1;SDS_P2;PMS_P1;PMS_P2;Temp;Humidity;BMP_temperature;BMP_pressure;BME280_temperature;BME280_humidity;BME280_pressure;Samples;Min_cycle;Max_cycle;Signal;HPM_P1;HPM_P2
2022/03/02 00:01:22;;;;;;;5.63;0.90;;;19.60;99.90;;;;;;5093340;28;20065;-86
2022/03/02 00:03:49;;;;;;;3.88;0.60;;;19.60;99.90;;;;;;5092073;28;20055;-84
2022/03/02 00:06:18;;;;;;;2.00;0.40;;;19.60;99.90;;;;;;5093509;28;20032;-85
2022/03/02 00:08:46;;;;;;;5.80;1.10;;;19.60;99.90;;;;;;5093361;28;20106;-84
2022/03/02 00:11:16;;;;;;;5.22;0.65;;;19.60;99.90;;;;;;5092201;28;20376;-80
2022/03/02 00:13:44;;;;;;;5.88;1.17;;;19.60;99.90;;;;;;5094278;28;20077;-83
2022/03/02 00:16:13;;;;;;;8.68;1.50;;;19.60;99.90;;;;;;5097313;28;20060;-84
2022/03/02 00:18:44;;;;;;;7.82;1.20;;;19.60;99.90;;;;;;5093199;28;20020;-84
2022/03/02 00:21:12;;;;;;;9.00;1.13;;;19.60;99.90;;;;;;5093882;28;20051;-84
2022/03/02 00:23:40;;;;;;;5.18;1.30;;;19.60;99.90;;;;;;5096047;28;20119;-84
2022/03/02 00:26:08;;;;;;;4.95;1.02;;;19.60;99.90;;;;;;5097180;28;20534;-85
2022/03/02 00:28:36;;;;;;;9.00;1.25;;;19.50;99.90;;;;;;5097058;28;20024;-84
2022/03/02 00:31:04;;;;;;;3.13;1.10;;;19.60;99.90;;;;;;5096614;28;20031;-84
2022/03/02 00:33:31;;;;;;;7.50;1.83;;;19.60;99.90;;;;;;5096666;28;20423;-84
2022/03/02 00:35:59;;;;;;;10.88;2.13;;;19.60;99.90;;;;;;5096864;28;20520;-80
2022/03/02 00:38:27;;;;;;;9.10;1.63;;;19.60;99.90;;;;;;5094989;28;20461;-78
2022/03/02 00:40:54;;;;;;;12.65;1.95;;;19.70;99.90;;;;;;5092649;28;20067;-84
2022/03/02 00:43:22;;;;;;;9.93;2.30;;;19.70;99.90;;;;;;5096342;28;20036;-85
2022/03/02 00:45:50;;;;;;;13.00;1.77;;;19.80;99.90;;;;;;5096264;28;20030;-85
2022/03/02 00:48:18;;;;;;;10.10;1.92;;;19.70;99.90;;;;;;5096036;28;20061;-85
2022/03/02 00:50:45;;;;;;;11.18;2.28;;;19.80;99.90;;;;;;5094784;28;20073;-82
2022/03/02 00:53:13;;;;;;;6.72;1.58;;;19.80;99.90;;;;;;5095959;28;20021;-83
2022/03/02 00:55:41;;;;;;;8.55;1.40;;;19.80;99.90;;;;;;5095631;28;20476;-83
2022/03/02 00:58:08;;;;;;;14.65;2.35;;;19.70;99.90;;;;;;5095412;28;20020;-83
2022/03/02 01:00:42;;;;;;;7.40;1.35;;;19.70;99.90;;;;;;5094302;28;20020;-83
2022/03/02 01:03:09;;;;;;;8.43;1.77;;;19.70;99.90;;;;;;5087416;28;20076;-83
2022/03/02 01:05:36;;;;;;;9.70;1.90;;;19.70;99.90;;;;;;5086844;28;20020;-80
2022/03/02 01:08:04;;;;;;;13.68;2.15;;;19.70;99.90;;;;;;5075141;28;20024;-83
2022/03/02 01:10:31;;;;;;;5.15;0.93;;;19.70;99.90;;;;;;5073663;28;20012;-82
2022/03/02 01:12:58;;;;;;;18.05;1.73;;;19.70;99.90;;;;;;5073551;28;20027;-82
2022/03/02 01:15:26;;;;;;;6.78;2.13;;;19.70;99.90;;;;;;5073144;28;20094;-75
2022/03/02 01:17:53;;;;;;;8.60;1.92;;;19.60;99.90;;;;;;5070421;28;20024;-83
2022/03/02 01:20:21;;;;;;;7.07;1.27;;;19.60;99.90;;;;;;5073724;28;20027;-83
2022/03/02 01:22:48;;;;;;;7.25;1.88;;;19.60;99.90;;;;;;5074112;28;20032;-78
2022/03/02 01:25:15;;;;;;;7.57;1.63;;;19.60;99.90;;;;;;5074396;28;20115;-77
2022/03/02 01:27:42;;;;;;;9.23;1.75;;;19.60;99.90;;;;;;5074399;28;20092;-84
2022/03/02 01:30:10;;;;;;;5.53;1.17;;;19.60;99.90;;;;;;5074831;28;20020;-76
2022/03/02 01:32:38;;;;;;;4.25;0.90;;;19.60;99.90;;;;;;5074241;28;20104;-80
2022/03/02 01:35:05;;;;;;;12.63;1.38;;;19.60;99.90;;;;;;5074865;28;20016;-80
2022/03/02 01:37:32;;;;;;;12.20;1.15;;;19.60;99.90;;;;;;5073368;28;20385;-78
2022/03/02 01:40:00;;;;;;;14.40;2.17;;;19.60;99.90;;;;;;5074813;28;20027;-76
2022/03/02 01:42:27;;;;;;;8.80;1.45;;;19.60;99.90;;;;;;5074765;28;20021;-74
2022/03/02 01:44:54;;;;;;;10.32;2.35;;;19.60;99.90;;;;;;5073242;28;20174;-75
2022/03/02 01:47:27;;;;;;;12.98;1.65;;;19.60;99.90;;;;;;5074659;28;20123;-80
2022/03/02 01:49:54;;;;;;;5.93;1.40;;;19.60;99.90;;;;;;5073060;28;20048;-78
2022/03/02 01:52:21;;;;;;;8.85;1.58;;;19.60;99.90;;;;;;5074618;28;20086;-80
2022/03/02 01:54:49;;;;;;;6.40;1.00;;;19.60;99.90;;;;;;5074452;28;20112;-75
2022/03/02 01:57:16;;;;;;;7.65;2.22;;;19.60;99.90;;;;;;5073279;28;20017;-75
2022/03/02 01:59:44;;;;;;;6.07;1.48;;;19.60;99.90;;;;;;5073880;28;20020;-80
2022/03/02 02:02:11;;;;;;;8.85;1.90;;;19.60;99.90;;;;;;5075336;28;20023;-84
2022/03/02 02:04:38;;;;;;;7.65;1.40;;;19.70;99.90;;;;;;5073034;28;20048;-78
2022/03/02 02:07:06;;;;;;;9.70;2.03;;;19.70;99.90;;;;;;5080972;28;20484;-84
2022/03/02 02:09:33;;;;;;;11.90;2.65;;;19.70;99.90;;;;;;5074643;28;20024;-85
2022/03/02 02:12:01;;;;;;;12.40;1.95;;;19.70;99.90;;;;;;5077249;28;20074;-84
2022/03/02 02:14:28;;;;;;;7.68;1.60;;;19.70;99.90;;;;;;5075879;28;20032;-84
2022/03/02 02:16:55;;;;;;;5.53;1.17;;;19.70;99.90;;;;;;5073600;28;20017;-85
2022/03/02 02:19:23;;;;;;;7.85;1.42;;;19.80;99.90;;;;;;5073744;28;20024;-81
2022/03/02 02:21:50;;;;;;;8.20;2.20;;;19.90;99.90;;;;;;5073861;28;20034;-84
2022/03/02 02:24:19;;;;;;;8.10;1.30;;;19.90;99.90;;;;;;5073465;28;20056;-84
2022/03/02 02:26:46;;;;;;;10.82;1.65;;;19.90;99.90;;;;;;5073673;28;20040;-80
2022/03/02 02:29:15;;;;;;;6.70;1.33;;;20.00;99.90;;;;;;5072680;28;20495;-77
2022/03/02 02:31:42;;;;;;;7.00;1.90;;;20.00;99.90;;;;;;5073122;28;20535;-80
2022/03/02 02:34:10;;;;;;;10.05;1.73;;;20.10;99.90;;;;;;5080484;28;20024;-84
2022/03/02 02:36:40;;;;;;;3.92;1.05;;;20.10;99.90;;;;;;5092391;28;20012;-78
2022/03/02 02:39:07;;;;;;;8.60;1.30;;;20.00;99.90;;;;;;5092187;28;20095;-82
2022/03/02 02:41:34;;;;;;;6.03;0.80;;;19.90;99.90;;;;;;5093701;28;20020;-76
2022/03/02 02:44:02;;;;;;;8.00;1.40;;;19.90;99.90;;;;;;5092759;28;20488;-74
2022/03/02 02:46:29;;;;;;;4.95;1.08;;;19.90;99.90;;;;;;5093448;28;20039;-78
2022/03/02 02:48:56;;;;;;;3.25;0.80;;;19.90;99.90;;;;;;5093019;28;20044;-77
2022/03/02 02:51:24;;;;;;;13.57;1.55;;;20.00;99.90;;;;;;5091963;28;20031;-77
2022/03/02 02:53:51;;;;;;;7.63;1.38;;;20.10;99.90;;;;;;5081643;28;20476;-72
2022/03/02 02:56:20;;;;;;;3.53;1.00;;;20.10;99.90;;;;;;5083616;28;20016;-86
2022/03/02 02:58:47;;;;;;;13.55;2.00;;;20.10;99.90;;;;;;5080901;28;20376;-84
2022/03/02 03:01:14;;;;;;;4.85;1.27;;;20.20;99.90;;;;;;5080920;28;20013;-72
2022/03/02 03:03:42;;;;;;;12.00;2.00;;;20.20;99.90;;;;;;5081016;28;20392;-85
2022/03/02 03:06:10;;;;;;;7.13;1.90;;;20.20;99.90;;;;;;5080756;28;20027;-81
2022/03/02 03:08:37;;;;;;;9.80;1.20;;;20.20;99.90;;;;;;5079863;28;20031;-84
2022/03/02 03:11:05;;;;;;;6.32;1.33;;;20.30;99.90;;;;;;5077403;28;20522;-82
2022/03/02 03:13:32;;;;;;;7.38;1.35;;;20.30;99.90;;;;;;5075597;28;20157;-72
2022/03/02 03:16:00;;;;;;;2.05;0.70;;;20.20;99.90;;;;;;5076549;28;20017;-76
2022/03/02 03:18:27;;;;;;;3.97;1.73;;;20.20;99.90;;;;;;5074783;28;20016;-81
2022/03/02 03:20:54;;;;;;;8.57;1.38;;;20.20;99.90;;;;;;5072223;28;20025;-84
2022/03/02 03:23:22;;;;;;;6.35;1.40;;;20.10;99.90;;;;;;5074849;28;20484;-79
2022/03/02 03:25:49;;;;;;;7.15;1.42;;;20.10;99.90;;;;;;5074933;28;20029;-75
2022/03/02 03:28:16;;;;;;;6.95;1.35;;;20.10;99.90;;;;;;5074530;28;20074;-75
2022/03/02 03:30:44;;;;;;;9.02;2.00;;;20.00;99.90;;;;;;5074727;28;20119;-76
2022/03/02 03:33:11;;;;;;;6.72;1.83;;;20.00;99.90;;;;;;5071915;28;20499;-86
2022/03/02 03:35:38;;;;;;;9.90;2.45;;;20.00;99.90;;;;;;5071928;28;20103;-84
2022/03/02 03:38:06;;;;;;;11.13;2.55;;;20.00;99.90;;;;;;5083411;28;20066;-77
2022/03/02 03:40:33;;;;;;;9.05;1.67;;;20.00;99.90;;;;;;5092562;28;20488;-86
2022/03/02 03:43:00;;;;;;;9.88;1.95;;;19.90;99.90;;;;;;5092357;28;20040;-86
2022/03/02 03:45:28;;;;;;;10.57;1.92;;;20.00;99.90;;;;;;5095980;28;20035;-85
2022/03/02 03:47:55;;;;;;;6.30;1.88;;;19.90;99.90;;;;;;5090074;28;20024;-85
2022/03/02 03:50:23;;;;;;;12.20;2.08;;;19.90;99.90;;;;;;5094426;28;20048;-85
2022/03/02 03:52:51;;;;;;;8.43;2.10;;;19.90;99.90;;;;;;5088404;28;20101;-84
2022/03/02 03:55:19;;;;;;;5.07;1.17;;;19.80;99.90;;;;;;5081993;28;20062;-86
2022/03/02 03:57:47;;;;;;;12.02;2.53;;;19.80;99.90;;;;;;5085352;28;20030;-82
2022/03/02 04:00:17;;;;;;;9.00;1.85;;;19.80;99.90;;;;;;5090445;28;20023;-73
2022/03/02 04:02:45;;;;;;;6.10;2.10;;;19.80;99.90;;;;;;5088896;28;20056;-86
2022/03/02 04:05:14;;;;;;;16.30;2.20;;;19.70;99.90;;;;;;5085998;28;20028;-86
2022/03/02 04:07:41;;;;;;;7.10;1.58;;;19.70;99.90;;;;;;5086885;28;20103;-72
2022/03/02 04:10:10;;;;;;;10.50;1.85;;;19.60;99.90;;;;;;5089008;28;20016;-72
2022/03/02 04:12:37;;;;;;;21.20;2.05;;;19.60;99.90;;;;;;5087868;28;20435;-85
2022/03/02 04:15:06;;;;;;;7.78;1.60;;;19.60;99.90;;;;;;5090042;28;20349;-86
2022/03/02 04:17:33;;;;;;;12.05;2.15;;;19.60;99.90;;;;;;5094209;28;20461;-86
2022/03/02 04:20:01;;;;;;;10.57;2.50;;;19.60;99.90;;;;;;5099018;28;20024;-79
2022/03/02 04:22:28;;;;;;;9.68;2.05;;;19.60;99.90;;;;;;5097106;28;20031;-84
2022/03/02 04:24:55;;;;;;;12.07;1.67;;;19.60;99.90;;;;;;5092505;28;20036;-78
2022/03/02 04:27:23;;;;;;;8.48;1.40;;;19.60;99.90;;;;;;5095387;28;20028;-84
2022/03/02 04:29:50;;;;;;;9.65;2.03;;;19.50;99.90;;;;;;5094089;28;20039;-85
2022/03/02 04:32:17;;;;;;;9.57;2.45;;;19.60;99.90;;;;;;5098970;28;20368;-85
2022/03/02 04:34:45;;;;;;;10.32;2.33;;;19.50;99.90;;;;;;5098519;28;20020;-73
2022/03/02 04:37:12;;;;;;;9.70;2.10;;;19.50;99.90;;;;;;5098585;28;20461;-83
2022/03/02 04:39:40;;;;;;;10.95;1.92;;;19.50;99.90;;;;;;5098648;28;20078;-72
2022/03/02 04:42:07;;;;;;;10.68;2.72;;;19.60;99.90;;;;;;5098585;28;20103;-77
2022/03/02 04:44:35;;;;;;;13.35;2.72;;;19.60;99.90;;;;;;5098588;28;20032;-82
2022/03/02 04:47:02;;;;;;;11.68;1.80;;;19.60;99.90;;;;;;5098401;28;20121;-80
2022/03/02 04:49:30;;;;;;;12.25;2.75;;;19.60;99.90;;;;;;5098439;28;20082;-87
2022/03/02 04:51:57;;;;;;;10.68;1.75;;;19.60;99.90;;;;;;5098719;28;20012;-73
2022/03/02 04:57:10;;;;;;;7.85;1.63;;;19.70;99.90;;;;;;5078507;28;20023;-86
2022/03/02 04:59:37;;;;;;;5.55;1.10;;;19.70;99.90;;;;;;5079302;28;20111;-81
2022/03/02 05:02:08;;;;;;;6.25;0.82;;;19.60;99.90;;;;;;5097764;28;20012;-86
2022/03/02 05:04:35;;;;;;;7.38;1.02;;;19.60;99.90;;;;;;5096080;28;20446;-72
2022/03/02 05:07:02;;;;;;;4.60;1.17;;;19.60;99.90;;;;;;5095457;28;20036;-83
2022/03/02 05:09:30;;;;;;;5.80;0.95;;;19.60;99.90;;;;;;5096319;28;20035;-84
2022/03/02 05:11:57;;;;;;;4.85;1.02;;;19.50;99.90;;;;;;5096257;28;20499;-83
2022/03/02 05:14:24;;;;;;;7.90;1.67;;;19.50;99.90;;;;;;5096031;28;20024;-85
2022/03/02 05:16:52;;;;;;;6.20;1.00;;;19.50;99.90;;;;;;5095942;28;20480;-77
2022/03/02 05:19:19;;;;;;;6.25;0.82;;;19.50;99.90;;;;;;5095999;28;20130;-84
2022/03/02 05:21:47;;;;;;;6.63;1.08;;;19.50;99.90;;;;;;5092806;28;20115;-75
2022/03/02 05:24:18;;;;;;;6.07;1.80;;;19.50;99.90;;;;;;5082447;28;20169;-83
2022/03/02 05:26:45;;;;;;;7.15;1.13;;;19.40;99.90;;;;;;5093880;28;20465;-83
2022/03/02 05:29:12;;;;;;;6.80;1.65;;;19.40;99.90;;;;;;5093693;28;20031;-84
2022/03/02 05:31:40;;;;;;;5.78;1.10;;;19.40;99.90;;;;;;5092125;28;20020;-72
2022/03/02 05:34:07;;;;;;;12.35;2.33;;;19.40;99.90;;;;;;5091845;28;20027;-81
2022/03/02 05:36:34;;;;;;;9.65;1.77;;;19.40;99.90;;;;;;5092043;28;20008;-82
2022/03/02 05:39:02;;;;;;;7.93;1.55;;;19.40;99.90;;;;;;5092760;28;20404;-78
2022/03/02 05:41:29;;;;;;;5.55;1.25;;;19.40;99.90;;;;;;5093697;28;20041;-71
2022/03/02 05:43:56;;;;;;;10.48;1.95;;;19.40;99.90;;;;;;5093367;28;20028;-83
2022/03/02 05:46:24;;;;;;;8.85;1.58;;;19.50;99.90;;;;;;5094866;28;20016;-85
2022/03/02 05:48:52;;;;;;;6.82;1.92;;;19.40;99.90;;;;;;5094583;28;20099;-84
2022/03/02 05:51:23;;;;;;;7.35;2.00;;;19.40;99.90;;;;;;5095546;28;20069;-82
2022/03/02 05:53:50;;;;;;;13.77;2.08;;;19.40;99.90;;;;;;5095265;28;20020;-83
2022/03/02 05:56:17;;;;;;;9.95;2.63;;;19.50;99.90;;;;;;5095378;28;20377;-85
2022/03/02 05:58:45;;;;;;;9.77;1.98;;;19.50;99.90;;;;;;5095382;28;20035;-85
2022/03/02 06:01:12;;;;;;;10.15;1.95;;;19.50;99.90;;;;;;5095298;28;20024;-85
2022/03/02 06:03:39;;;;;;;11.27;1.77;;;19.50;99.90;;;;;;5095574;28;20128;-85
2022/03/02 06:09:13;;;;;;;8.38;1.83;;;19.50;99.90;;;;;;5084408;28;20041;-72
2022/03/02 06:11:43;;;;;;;8.40;1.85;;;19.50;99.90;;;;;;5093869;28;20039;-83
2022/03/02 06:14:11;;;;;;;7.32;1.63;;;19.50;99.90;;;;;;5095186;28;20380;-84
2022/03/02 06:16:38;;;;;;;9.82;1.63;;;19.50;99.90;;;;;;5094833;28;20564;-84
2022/03/02 06:19:06;;;;;;;11.07;1.73;;;19.40;99.90;;;;;;5093778;28;20028;-85
2022/03/02 06:21:34;;;;;;;8.73;2.33;;;19.40;99.90;;;;;;5095109;28;20495;-85
2022/03/02 06:24:05;;;;;;;10.88;2.10;;;19.50;99.90;;;;;;5094876;28;20036;-84
2022/03/02 06:26:33;;;;;;;9.40;1.95;;;19.40;99.90;;;;;;5094959;28;20020;-79
2022/03/02 06:29:01;;;;;;;9.65;1.50;;;19.40;99.90;;;;;;5094622;28;20039;-86
2022/03/02 06:31:28;;;;;;;9.82;1.48;;;19.50;99.90;;;;;;5094946;28;20016;-79
2022/03/02 06:33:56;;;;;;;5.85;1.27;;;19.50;99.90;;;;;;5095310;28;20101;-85
2022/03/02 06:36:23;;;;;;;9.15;1.40;;;19.50;99.90;;;;;;5094568;28;20035;-82
2022/03/02 06:38:50;;;;;;;9.27;1.90;;;19.50;99.90;;;;;;5094145;28;20073;-83
2022/03/02 06:41:38;;;;;;;6.88;1.75;;;19.50;99.90;;;;;;5087668;28;20048;-83
2022/03/02 06:44:15;;;;;;;7.57;1.05;;;19.50;99.90;;;;;;5086985;28;20035;-84
2022/03/02 06:47:01;;;;;;;9.18;2.28;;;19.50;99.90;;;;;;5094307;28;20030;-84
2022/03/02 06:49:47;;;;;;;5.53;1.20;;;19.50;99.90;;;;;;5094223;28;20063;-84
2022/03/02 06:52:19;;;;;;;6.97;1.13;;;19.50;99.90;;;;;;5079154;28;20032;-80
2022/03/02 06:54:50;;;;;;;9.95;2.42;;;19.50;99.90;;;;;;5073911;28;20060;-83
2022/03/02 06:57:19;;;;;;;7.38;1.35;;;19.60;99.90;;;;;;5084000;28;20008;-84
2022/03/02 07:00:02;;;;;;;4.45;1.02;;;19.60;99.90;;;;;;5094115;28;20077;-84
2022/03/02 07:02:44;;;;;;;6.80;1.75;;;19.60;99.90;;;;;;5094295;28;20081;-82
2022/03/02 07:05:12;;;;;;;8.55;1.75;;;19.60;99.90;;;;;;5094110;28;20159;-84
2022/03/02 07:07:39;;;;;;;3.08;1.40;;;19.60;99.90;;;;;;5093959;28;20027;-85
2022/03/02 07:10:09;;;;;;;7.63;1.60;;;19.60;99.90;;;;;;5093752;28;20027;-82
2022/03/02 07:12:38;;;;;;;9.38;1.63;;;19.60;99.90;;;;;;5093626;28;20484;-85
2022/03/02 07:15:06;;;;;;;5.85;1.20;;;19.60;99.90;;;;;;5093676;28;20025;-85
2022/03/02 07:17:35;;;;;;;14.18;2.47;;;19.60;99.90;;;;;;5093632;28;20354;-77
2022/03/02 07:20:05;;;;;;;9.13;1.73;;;19.50;99.90;;;;;;5088789;28;20056;-74
2022/03/02 07:22:35;;;;;;;9.75;1.85;;;19.50;99.90;;;;;;5087122;28;20027;-74
2022/03/02 07:25:22;;;;;;;9.82;1.65;;;19.50;99.90;;;;;;5088848;28;20032;-83
2022/03/02 07:27:50;;;;;;;6.47;1.85;;;19.50;99.90;;;;;;5092636;28;20502;-82
2022/03/02 07:30:18;;;;;;;9.13;1.48;;;19.50;99.90;;;;;;5091634;28;20024;-72
2022/03/02 07:32:47;;;;;;;11.20;1.98;;;19.50;99.90;;;;;;5091464;28;20103;-85
2022/03/02 07:35:18;;;;;;;8.15;2.13;;;19.50;99.90;;;;;;5090824;28;20122;-79
2022/03/02 07:37:46;;;;;;;12.23;2.00;;;19.50;99.90;;;;;;5092063;28;20066;-83
2022/03/02 07:40:14;;;;;;;11.48;2.15;;;19.50;99.90;;;;;;5093452;28;20376;-82
2022/03/02 07:42:42;;;;;;;7.72;1.90;;;19.50;99.90;;;;;;5092143;28;20024;-71
2022/03/02 07:45:09;;;;;;;7.10;1.60;;;19.60;99.90;;;;;;5091715;28;20538;-86
2022/03/02 07:47:40;;;;;;;9.35;1.52;;;19.60;99.90;;;;;;5093491;28;20465;-82
2022/03/02 07:50:08;;;;;;;5.35;1.38;;;19.60;99.90;;;;;;5093272;28;20161;-70
2022/03/02 07:52:46;;;;;;;6.45;1.75;;;19.50;99.90;;;;;;5083757;28;20473;-75
2022/03/02 07:55:14;;;;;;;2.83;1.10;;;19.50;99.90;;;;;;5072827;28;20039;-76
2022/03/02 07:57:42;;;;;;;4.00;1.10;;;19.50;99.90;;;;;;5072348;28;20024;-83
2022/03/02 08:00:12;;;;;;;7.38;1.13;;;19.50;99.90;;;;;;5071356;28;20037;-81
2022/03/02 08:02:41;;;;;;;3.13;0.80;;;19.40;99.90;;;;;;5071470;28;20041;-77
2022/03/02 08:05:10;;;;;;;4.68;0.90;;;19.40;99.90;;;;;;5070573;28;20064;-82
2022/03/02 08:07:39;;;;;;;5.20;1.08;;;19.40;99.90;;;;;;5071666;28;20066;-72
2022/03/02 08:10:07;;;;;;;3.25;1.10;;;19.40;99.90;;;;;;5070120;28;20073;-78
2022/03/02 08:12:35;;;;;;;4.97;1.00;;;19.40;99.90;;;;;;5072405;28;20017;-82
2022/03/02 08:15:05;;;;;;;8.73;1.83;;;19.50;99.90;;;;;;5071881;28;20024;-81
2022/03/02 08:17:33;;;;;;;8.82;1.13;;;19.50;99.90;;;;;;5071697;28;20440;-73
2022/03/02 08:20:00;;;;;;;5.22;1.40;;;19.50;99.90;;;;;;5072127;28;20081;-82
2022/03/02 08:22:29;;;;;;;6.18;1.40;;;19.50;99.90;;;;;;5072214;28;20052;-78
2022/03/02 08:25:11;;;;;;;2.78;1.05;;;19.40;99.90;;;;;;5072292;28;20028;-78
2022/03/02 08:27:41;;;;;;;6.40;1.08;;;19.40;99.90;;;;;;5071577;28;20062;-73
2022/03/02 08:30:09;;;;;;;6.38;1.55;;;19.50;99.90;;;;;;5071465;28;20025;-78
2022/03/02 08:32:45;;;;;;;4.68;1.10;;;19.50;99.90;;;;;;5074924;28;20540;-84
2022/03/02 08:35:14;;;;;;;8.75;2.00;;;19.40;99.90;;;;;;5070265;28;20388;-83
2022/03/02 08:37:46;;;;;;;6.63;1.00;;;19.50;99.90;;;;;;5071847;28;20017;-82
2022/03/02 08:40:14;;;;;;;5.85;1.55;;;19.50;99.90;;;;;;5069172;28;20448;-82
2022/03/02 08:42:41;;;;;;;1.35;0.45;;;19.50;99.90;;;;;;5072358;28;20021;-75
2022/03/02 08:45:10;;;;;;;1.38;0.30;;;19.50;99.90;;;;;;5075703;28;20097;-78
2022/03/02 08:47:39;;;;;;;0.95;0.50;;;19.40;99.90;;;;;;5075525;28;20096;-81
2022/03/02 08:50:07;;;;;;;1.05;0.30;;;19.30;99.90;;;;;;5074277;28;20043;-84
2022/03/02 08:52:36;;;;;;;1.48;0.40;;;19.30;99.90;;;;;;5076675;28;20463;-82
2022/03/02 08:55:08;;;;;;;2.55;0.20;;;19.30;99.90;;;;;;5073581;28;20431;-86
2022/03/02 08:57:39;;;;;;;1.17;0.35;;;19.20;99.90;;;;;;5073660;28;20063;-76
2022/03/02 09:00:07;;;;;;;2.00;0.40;;;19.20;99.90;;;;;;5074593;28;20052;-76
2022/03/02 09:02:37;;;;;;;4.70;0.50;;;19.20;99.90;;;;;;5075213;28;20107;-84
2022/03/02 09:05:07;;;;;;;1.50;0.70;;;19.20;99.90;;;;;;5074289;28;20032;-76
2022/03/02 09:07:35;;;;;;;5.40;0.70;;;19.20;99.90;;;;;;5075659;28;20024;-72
2022/03/02 09:10:06;;;;;;;4.13;0.43;;;19.10;99.90;;;;;;5074877;28;20033;-73
2022/03/02 09:12:34;;;;;;;1.80;0.75;;;19.10;99.90;;;;;;5072972;28;20879;-78
2022/03/02 09:15:01;;;;;;;2.83;0.85;;;19.20;99.90;;;;;;5074340;28;20028;-74
2022/03/02 09:17:29;;;;;;;0.93;0.38;;;19.20;99.90;;;;;;5081017;28;20085;-82
2022/03/02 09:19:57;;;;;;;2.22;0.35;;;19.20;99.90;;;;;;5093000;28;20492;-72
2022/03/02 09:22:27;;;;;;;2.65;0.80;;;19.20;99.90;;;;;;5106407;28;20771;-75
2022/03/02 09:24:58;;;;;;;2.78;0.40;;;19.20;99.90;;;;;;5093934;28;20028;-82
2022/03/02 09:27:28;;;;;;;6.30;1.02;;;19.20;99.90;;;;;;5094941;28;20484;-76
2022/03/02 09:30:01;;;;;;;7.43;0.90;;;19.20;99.90;;;;;;5094969;28;20050;-84
2022/03/02 09:32:32;;;;;;;5.15;0.70;;;19.20;99.90;;;;;;5090155;28;20077;-77
2022/03/02 09:35:00;;;;;;;2.95;0.50;;;19.30;99.90;;;;;;5087285;28;20047;-75
2022/03/02 09:37:34;;;;;;;2.70;0.60;;;19.30;99.90;;;;;;5091798;28;20023;-72
2022/03/02 09:40:02;;;;;;;5.05;0.82;;;19.30;99.90;;;;;;5089909;28;20299;-75
2022/03/02 09:42:40;;;;;;;4.22;0.70;;;19.30;99.90;;;;;;5090887;28;20016;-78
2022/03/02 09:45:12;;;;;;;5.70;0.75;;;19.30;99.90;;;;;;5094640;28;20024;-75
2022/03/02 09:47:46;;;;;;;8.02;1.70;;;19.20;99.90;;;;;;5087237;28;20024;-71
2022/03/02 09:50:17;;;;;;;4.93;1.40;;;19.30;99.90;;;;;;5081677;28;20060;-80
2022/03/02 09:52:47;;;;;;;7.68;1.13;;;19.20;99.90;;;;;;5091165;28;20051;-75
2022/03/02 09:55:17;;;;;;;5.38;0.88;;;19.30;99.90;;;;;;5094125;28;20047;-71
2022/03/02 09:57:47;;;;;;;5.93;1.38;;;19.30;99.90;;;;;;5094360;28;20025;-72
2022/03/02 10:00:18;;;;;;;5.68;1.25;;;19.20;99.90;;;;;;5094039;28;20027;-83
2022/03/02 10:02:50;;;;;;;8.48;1.73;;;19.20;99.90;;;;;;5091575;28;20094;-79
2022/03/02 10:05:23;;;;;;;4.32;0.77;;;19.20;99.90;;;;;;5090836;28;20476;-75
2022/03/02 10:08:00;;;;;;;5.13;1.13;;;19.20;99.90;;;;;;5092335;28;20043;-81
2022/03/02 10:10:31;;;;;;;6.00;0.98;;;19.20;99.90;;;;;;5088428;28;20024;-81
2022/03/02 10:13:10;;;;;;;8.73;1.30;;;19.20;99.90;;;;;;5091030;28;20572;-75
2022/03/02 10:15:39;;;;;;;2.88;1.17;;;19.20;99.90;;;;;;5089664;28;20082;-83
2022/03/02 10:18:08;;;;;;;4.93;1.02;;;19.20;99.90;;;;;;5093499;28;20054;-80
2022/03/02 10:20:37;;;;;;;4.88;0.77;;;19.20;99.90;;;;;;5089173;28;20120;-78
2022/03/02 10:23:36;;;;;;;4.72;1.25;;;19.20;99.90;;;;;;5090571;28;20115;-83
2022/03/02 10:26:03;;;;;;;4.05;0.63;;;19.20;99.90;;;;;;5077993;28;20442;-79
2022/03/02 10:28:52;;;;;;;6.80;1.60;;;19.20;99.90;;;;;;5094118;28;20024;-75
2022/03/02 10:31:47;;;;;;;5.25;1.00;;;19.20;99.90;;;;;;5092260;28;20069;-71
2022/03/02 10:34:34;;;;;;;3.15;1.02;;;19.20;99.90;;;;;;5092515;28;20028;-75
2022/03/02 10:37:24;;;;;;;3.80;1.33;;;19.20;99.90;;;;;;5092007;28;20368;-76
2022/03/02 10:40:05;;;;;;;2.67;0.98;;;19.20;99.90;;;;;;5090635;28;20028;-73
2022/03/02 10:42:41;;;;;;;3.45;1.40;;;19.20;99.90;;;;;;5091836;28;20048;-78
2022/03/02 10:45:28;;;;;;;6.35;1.30;;;19.20;99.90;;;;;;5092160;28;20060;-71
2022/03/02 10:48:16;;;;;;;2.85;0.47;;;19.20;99.90;;;;;;5094487;28;20502;-78
2022/03/02 10:50:46;;;;;;;1.38;0.60;;;19.20;99.90;;;;;;5090829;28;20051;-77
2022/03/02 10:53:19;;;;;;;4.80;0.60;;;19.20;99.90;;;;;;5073872;28;20403;-70
2022/03/02 10:55:48;;;;;;;2.80;0.60;;;19.20;99.90;;;;;;5073845;28;20119;-70
2022/03/02 10:58:20;;;;;;;2.60;0.50;;;19.20;99.90;;;;;;5073646;28;20024;-78
2022/03/02 11:00:50;;;;;;;6.93;1.27;;;19.20;99.90;;;;;;5075826;28;20024;-80
2022/03/02 11:03:19;;;;;;;4.95;0.82;;;19.20;99.90;;;;;;5092430;28;20031;-73
2022/03/02 11:05:47;;;;;;;7.03;1.52;;;19.10;99.90;;;;;;5090040;28;20058;-71
2022/03/02 11:08:17;;;;;;;5.68;1.42;;;19.10;99.90;;;;;;5091731;28;20028;-76
2022/03/02 11:10:45;;;;;;;7.38;1.27;;;19.10;99.90;;;;;;5092131;28;20443;-72
2022/03/02 11:13:14;;;;;;;8.77;1.80;;;19.00;99.90;;;;;;5089761;28;20461;-81
2022/03/02 11:16:02;;;;;;;9.63;1.73;;;19.10;99.90;;;;;;5092371;28;20043;-76
2022/03/02 11:18:39;;;;;;;8.27;1.77;;;19.10;99.90;;;;;;5090754;28;20439;-74
2022/03/02 11:21:08;;;;;;;11.73;1.33;;;19.10;99.90;;;;;;5092137;28;20028;-72
2022/03/02 11:23:56;;;;;;;11.70;2.13;;;19.10;99.90;;;;;;5090986;28;20373;-72
2022/03/02 11:26:26;;;;;;;9.75;2.30;;;19.20;99.90;;;;;;5092777;28;20481;-77
2022/03/02 11:29:02;;;;;;;11.10;2.42;;;19.20;99.90;;;;;;5092810;28;20099;-73
2022/03/02 11:31:54;;;;;;;10.35;2.25;;;19.20;99.90;;;;;;5092817;28;20016;-75
2022/03/02 11:34:26;;;;;;;10.57;2.33;;;19.20;99.90;;;;;;5091117;28;20036;-79
2022/03/02 11:37:05;;;;;;;10.18;2.80;;;19.20;99.90;;;;;;5092530;28;20016;-72
2022/03/02 11:39:33;;;;;;;11.15;2.10;;;19.30;99.90;;;;;;5086218;28;20102;-72
2022/03/02 11:42:06;;;;;;;15.25;3.30;;;19.20;99.90;;;;;;5072360;28;20027;-77
2022/03/02 11:44:38;;;;;;;12.52;2.35;;;19.20;99.90;;;;;;5071269;28;20032;-74
2022/03/02 11:47:07;;;;;;;16.90;3.42;;;19.30;99.90;;;;;;5072490;28;20016;-76
2022/03/02 11:49:57;;;;;;;14.68;3.33;;;19.30;99.90;;;;;;5080086;28;20109;-77
2022/03/02 11:52:29;;;;;;;19.75;2.83;;;19.40;99.90;;;;;;5091694;28;20024;-78
2022/03/02 11:54:59;;;;;;;16.10;2.70;;;19.40;99.90;;;;;;5092627;28;20368;-78
2022/03/02 11:57:30;;;;;;;10.40;2.15;;;19.40;99.90;;;;;;5092139;28;20020;-80
2022/03/02 12:00:25;;;;;;;21.13;2.85;;;19.40;99.90;;;;;;5092459;28;20047;-72
2022/03/02 12:03:02;;;;;;;9.90;2.90;;;19.50;99.90;;;;;;5090267;28;20032;-75
2022/03/02 12:05:32;;;;;;;9.82;1.55;;;19.50;99.90;;;;;;5091755;28;20065;-80
2022/03/02 12:08:03;;;;;;;6.35;1.60;;;19.50;99.90;;;;;;5092116;28;20020;-72
2022/03/02 12:10:36;;;;;;;10.25;2.03;;;19.40;99.90;;;;;;5091058;28;20024;-71
2022/03/02 12:13:04;;;;;;;7.95;1.15;;;19.40;99.90;;;;;;5092199;28;20031;-78
2022/03/02 12:15:45;;;;;;;9.35;2.47;;;19.40;99.90;;;;;;5092148;28;20074;-73
2022/03/02 12:18:15;;;;;;;5.80;1.80;;;19.40;99.90;;;;;;5093679;28;20020;-74
2022/03/02 12:21:00;;;;;;;10.10;1.80;;;19.40;99.90;;;;;;5096188;28;20031;-76
2022/03/02 12:23:34;;;;;;;9.00;2.03;;;19.30;99.90;;;;;;5093286;28;20487;-81
2022/03/02 12:26:04;;;;;;;10.80;2.05;;;19.30;99.90;;;;;;5096024;28;20028;-71
2022/03/02 12:28:32;;;;;;;12.60;2.78;;;19.30;99.90;;;;;;5096086;28;20020;-79
2022/03/02 12:30:59;;;;;;;14.98;3.03;;;19.30;99.90;;;;;;5095982;28;20029;-81
2022/03/02 12:33:26;;;;;;;6.93;2.00;;;19.30;99.90;;;;;;5094552;28;20016;-77
2022/03/02 12:35:54;;;;;;;8.30;2.42;;;19.30;99.90;;;;;;5092249;28;20097;-80
2022/03/02 12:38:21;;;;;;;19.55;3.00;;;19.30;99.90;;;;;;5088900;28;20455;-77
2022/03/02 12:40:49;;;;;;;15.02;3.08;;;19.40;99.90;;;;;;5092620;28;20032;-84
2022/03/02 12:43:18;;;;;;;11.38;2.70;;;19.40;99.90;;;;;;5091952;28;20016;-83
2022/03/02 12:45:49;;;;;;;15.68;3.67;;;19.40;99.90;;;;;;5091845;28;20024;-83
2022/03/02 12:48:20;;;;;;;18.63;3.15;;;19.40;99.90;;;;;;5092356;28;20498;-82
2022/03/02 12:50:49;;;;;;;18.77;3.90;;;19.50;99.90;;;;;;5095750;28;20071;-81
2022/03/02 12:53:19;;;;;;;18.33;3.60;;;19.50;99.90;;;;;;5095588;28;20016;-78
2022/03/02 12:55:46;;;;;;;23.98;3.88;;;19.50;99.90;;;;;;5095404;28;20493;-82
2022/03/02 12:58:13;;;;;;;21.65;4.15;;;19.50;99.90;;;;;;5095551;28;20020;-72
2022/03/02 13:00:41;;;;;;;33.45;4.43;;;19.50;99.90;;;;;;5095572;28;20047;-82
2022/03/02 13:03:11;;;;;;;18.60;3.78;;;19.50;99.90;;;;;;5095454;28;20030;-81